createdAt,value
2022-08-07T00:00:25.456Z,49.46
2022-08-07T00:02:53.566Z,47.75
2022-08-07T00:05:23.625Z,46.33
2022-08-07T00:07:59.821Z,46.90
2022-08-07T00:10:30.771Z,47.25
2022-08-07T00:13:01.814Z,47.92
2022-08-07T00:15:38.360Z,46.70
2022-08-07T00:18:19.667Z,46.33
2022-08-07T00:20:54.503Z,45.95
2022-08-07T00:23:21.856Z,47.68
2022-08-07T00:25:59.005Z,48.13
2022-08-07T00:28:33.440Z,46.80
2022-08-07T00:31:06.249Z,48.34
2022-08-07T00:33:40.167Z,48.88
2022-08-07T00:36:08.399Z,48.12
2022-08-07T00:38:36.853Z,46.56
2022-08-07T00:41:10.091Z,49.25
2022-08-07T00:43:59.506Z,48.92
2022-08-07T00:46:30.179Z,48.82
2022-08-07T00:49:02.111Z,47.34
2022-08-07T00:51:58.342Z,48.77
2022-08-07T00:54:17.830Z,48.54
2022-08-07T00:56:49.784Z,48.11
2022-08-07T00:59:35.156Z,48.63
2022-08-07T01:02:14.171Z,48.36
2022-08-07T01:04:54.574Z,47.85
2022-08-07T01:07:27.593Z,47.12
2022-08-07T01:10:05.888Z,47.25
2022-08-07T01:12:39.465Z,47.69
2022-08-07T01:15:21.601Z,47.55
2022-08-07T01:17:49.289Z,47.89
2022-08-07T01:20:17.483Z,47.00
2022-08-07T01:22:54.199Z,47.39
2022-08-07T01:25:53.996Z,47.41
2022-08-07T01:28:20.326Z,45.96
2022-08-07T01:30:51.222Z,45.95
2022-08-07T01:33:19.819Z,46.18
2022-08-07T01:35:53.727Z,45.58
2022-08-07T01:38:24.841Z,46.01
2022-08-07T01:40:54.867Z,45.74
2022-08-07T01:43:22.833Z,46.06
2022-08-07T01:45:54.384Z,46.42
2022-08-07T01:48:30.242Z,46.44
2022-08-07T01:51:24.444Z,45.44
2022-08-07T01:54:09.206Z,46.26
2022-08-07T01:56:40.094Z,46.47
2022-08-07T01:59:17.781Z,46.18
2022-08-07T02:02:02.836Z,46.56
2022-08-07T02:04:55.866Z,46.79
2022-08-07T02:07:36.176Z,46.79
2022-08-07T02:10:14.565Z,45.52
2022-08-07T02:12:46.330Z,47.04
2022-08-07T02:15:14.573Z,48.06
2022-08-07T02:17:49.441Z,47.87
2022-08-07T02:20:23.951Z,48.55
2022-08-07T02:22:55.135Z,47.40
2022-08-07T02:26:10.532Z,47.26
2022-08-07T02:28:11.880Z,48.63
2022-08-07T02:30:39.775Z,49.40
2022-08-07T02:33:10.406Z,48.29
2022-08-07T02:36:30.569Z,47.50
2022-08-07T02:38:31.842Z,50.78
2022-08-07T02:41:00.634Z,50.23
2022-08-07T02:43:28.061Z,51.53
2022-08-07T02:46:01.731Z,52.54
2022-08-07T02:48:30.302Z,50.50
2022-08-07T02:50:59.574Z,52.10
2022-08-07T02:53:31.446Z,50.75
2022-08-07T02:56:17.568Z,52.34
2022-08-07T02:58:50.164Z,53.22
2022-08-07T03:01:35.499Z,52.69
2022-08-07T03:04:07.610Z,51.42
2022-08-07T03:06:40.445Z,53.34
2022-08-07T03:09:11.240Z,52.39
2022-08-07T03:11:51.508Z,52.67
2022-08-07T03:14:22.377Z,54.00
2022-08-07T03:16:50.188Z,53.90
2022-08-07T03:19:20.346Z,53.59
2022-08-07T03:21:50.574Z,53.69
2022-08-07T03:24:26.890Z,54.85
2022-08-07T03:26:59.712Z,55.71
2022-08-07T03:29:38.390Z,54.76
2022-08-07T03:32:13.362Z,55.21
2022-08-07T03:34:47.497Z,54.00
2022-08-07T03:37:37.382Z,54.49
2022-08-07T03:40:15.699Z,54.21
2022-08-07T03:42:44.561Z,55.97
2022-08-07T03:45:12.230Z,55.98
2022-08-07T03:47:58.158Z,55.82
2022-08-07T03:50:28.764Z,57.17
2022-08-07T03:52:58.773Z,56.94
2022-08-07T03:55:53.361Z,57.55
2022-08-07T03:59:05.128Z,56.88
2022-08-07T04:01:03.628Z,57.18
2022-08-07T04:03:49.991Z,56.63
2022-08-07T04:06:38.025Z,56.54
2022-08-07T04:09:08.471Z,57.66
2022-08-07T04:12:23.692Z,57.91
2022-08-07T04:14:38.859Z,57.61
2022-08-07T04:17:19.841Z,58.18
2022-08-07T04:19:52.271Z,57.92
2022-08-07T04:22:23.573Z,57.75
2022-08-07T04:24:58.092Z,58.90
2022-08-07T04:27:26.675Z,58.15
2022-08-07T04:30:01.446Z,59.38
2022-08-07T04:32:34.428Z,59.56
2022-08-07T04:35:05.582Z,59.34
2022-08-07T04:38:02.859Z,59.95
2022-08-07T04:40:21.467Z,58.60
2022-08-07T04:42:54.068Z,59.17
2022-08-07T04:45:57.542Z,58.70
2022-08-07T04:48:28.030Z,59.51
2022-08-07T04:51:05.934Z,60.20
2022-08-07T04:54:11.988Z,59.95
2022-08-07T04:58:09.708Z,60.21
2022-08-07T05:00:11.169Z,60.25
2022-08-07T05:02:39.503Z,60.11
2022-08-07T05:05:53.314Z,59.74
2022-08-07T05:08:02.721Z,59.67
2022-08-07T05:10:41.902Z,59.63
2022-08-07T05:14:53.825Z,60.32
2022-08-07T05:16:04.946Z,60.43
2022-08-07T05:18:45.414Z,60.32
2022-08-07T05:21:14.855Z,60.20
2022-08-07T05:23:45.857Z,59.83
2022-08-07T05:26:23.617Z,60.29
2022-08-07T05:28:56.361Z,60.03
2022-08-07T05:31:34.557Z,59.26
2022-08-07T05:34:05.870Z,59.25
2022-08-07T05:36:40.478Z,59.81
2022-08-07T05:40:04.856Z,60.08
2022-08-07T05:42:01.750Z,59.65
2022-08-07T05:44:33.772Z,59.89
2022-08-07T05:47:01.930Z,59.50
2022-08-07T05:49:49.884Z,59.76
2022-08-07T05:52:20.718Z,59.35
2022-08-07T05:55:07.283Z,59.44
2022-08-07T05:57:42.381Z,59.27
2022-08-07T06:00:16.121Z,58.68
2022-08-07T06:02:47.798Z,58.92
2022-08-07T06:05:15.589Z,59.03
2022-08-07T06:08:29.276Z,58.52
2022-08-07T06:10:31.510Z,58.22
2022-08-07T06:13:00.153Z,58.60
2022-08-07T06:15:39.015Z,58.36
2022-08-07T06:18:12.061Z,57.78
2022-08-07T06:20:49.610Z,57.88
2022-08-07T06:24:37.816Z,57.89
2022-08-07T06:26:15.420Z,57.76
2022-08-07T06:28:52.775Z,57.83
2022-08-07T06:31:20.615Z,57.55
2022-08-07T06:33:51.621Z,57.67
2022-08-07T06:36:35.019Z,57.52
2022-08-07T06:40:16.543Z,57.60
2022-08-07T06:42:01.952Z,57.50
2022-08-07T06:44:34.221Z,57.31
2022-08-07T06:47:12.075Z,57.13
2022-08-07T06:49:52.486Z,57.21
2022-08-07T06:52:31.918Z,57.10
2022-08-07T06:55:32.466Z,56.70
2022-08-07T06:58:14.202Z,56.99
2022-08-07T07:00:44.556Z,56.99
2022-08-07T07:03:13.882Z,56.74
2022-08-07T07:06:03.808Z,56.24
2022-08-07T07:08:33.180Z,56.40
2022-08-07T07:11:01.473Z,56.35
2022-08-07T07:13:58.340Z,55.98
2022-08-07T07:16:31.054Z,56.05
2022-08-07T07:19:04.140Z,55.76
2022-08-07T07:22:11.762Z,55.58
2022-08-07T07:24:42.926Z,55.63
2022-08-07T07:27:25.886Z,55.45
2022-08-07T07:30:09.929Z,55.63
2022-08-07T07:32:41.178Z,55.07
2022-08-07T07:35:11.195Z,55.27
2022-08-07T07:37:47.256Z,55.37
2022-08-07T07:40:27.877Z,55.09
2022-08-07T07:42:56.712Z,55.43
2022-08-07T07:46:36.664Z,55.49
2022-08-07T07:48:34.871Z,55.18
2022-08-07T07:51:07.501Z,55.20
2022-08-07T07:53:39.768Z,55.04
2022-08-07T07:56:30.219Z,55.41
2022-08-07T07:59:06.098Z,54.94
2022-08-07T08:02:05.084Z,54.47
2022-08-07T08:04:25.470Z,54.39
2022-08-07T08:06:54.240Z,53.99
2022-08-07T08:09:23.384Z,54.15
2022-08-07T08:12:01.959Z,54.00
2022-08-07T08:14:36.406Z,54.17
2022-08-07T08:18:17.503Z,54.19
2022-08-07T08:20:19.948Z,53.34
2022-08-07T08:23:08.135Z,53.38
2022-08-07T08:25:56.229Z,53.46
2022-08-07T08:28:38.686Z,53.04
2022-08-07T08:31:15.759Z,52.82
2022-08-07T08:33:49.777Z,53.24
2022-08-07T08:36:25.436Z,52.48
2022-08-07T08:38:54.231Z,51.80
2022-08-07T08:41:31.594Z,52.37
2022-08-07T08:44:33.205Z,51.94
2022-08-07T08:47:19.865Z,51.82
2022-08-07T08:50:05.714Z,51.15
2022-08-07T08:52:56.218Z,51.43
2022-08-07T08:55:54.831Z,51.03
2022-08-07T08:58:28.333Z,50.70
2022-08-07T09:01:19.385Z,50.76
2022-08-07T09:03:58.660Z,50.74
2022-08-07T09:06:47.820Z,50.72
2022-08-07T09:09:21.047Z,50.59
2022-08-07T09:12:19.983Z,49.96
2022-08-07T09:16:24.320Z,50.38
2022-08-07T09:17:59.670Z,49.93
2022-08-07T09:20:58.623Z,50.18
2022-08-07T09:24:31.272Z,49.94
2022-08-07T09:26:47.925Z,49.67
2022-08-07T09:30:03.760Z,49.21
2022-08-07T09:32:38.802Z,49.16
2022-08-07T09:36:05.383Z,48.83
2022-08-07T09:38:14.392Z,48.51
2022-08-07T09:41:00.184Z,48.58
2022-08-07T09:44:03.033Z,48.44
2022-08-07T09:47:25.279Z,48.59
2022-08-07T09:50:02.026Z,48.42
2022-08-07T09:52:34.228Z,48.68
2022-08-07T09:55:02.272Z,47.86
2022-08-07T09:57:30.208Z,47.97
2022-08-07T10:00:08.351Z,48.24
2022-08-07T10:02:55.483Z,47.64
2022-08-07T10:05:59.623Z,47.53
2022-08-07T10:08:25.920Z,47.29
2022-08-07T10:11:16.994Z,47.35
2022-08-07T10:14:01.360Z,47.38
2022-08-07T10:16:38.078Z,47.80
2022-08-07T10:19:19.141Z,46.87
2022-08-07T10:22:15.340Z,46.98
2022-08-07T10:24:46.532Z,47.31
2022-08-07T10:27:20.473Z,46.56
2022-08-07T10:29:59.434Z,47.09
2022-08-07T10:32:36.702Z,46.70
2022-08-07T10:35:20.504Z,46.44
2022-08-07T10:38:21.838Z,46.02
2022-08-07T10:40:56.127Z,45.84
2022-08-07T10:43:49.665Z,45.86
2022-08-07T10:46:25.134Z,45.65
2022-08-07T10:48:55.883Z,45.45
2022-08-07T10:51:39.619Z,45.77
2022-08-07T10:54:42.729Z,45.35
2022-08-07T10:57:39.405Z,45.33
2022-08-07T11:00:36.340Z,45.20
2022-08-07T11:03:03.425Z,45.00
2022-08-07T11:05:57.647Z,45.46
2022-08-07T11:09:04.411Z,45.17
2022-08-07T11:11:51.955Z,45.86
2022-08-07T11:15:00.436Z,45.85
2022-08-07T11:17:42.711Z,45.95
2022-08-07T11:20:16.402Z,45.96
2022-08-07T11:23:03.279Z,45.55
2022-08-07T11:25:36.088Z,46.10
2022-08-07T11:28:17.573Z,46.03
2022-08-07T11:30:47.619Z,45.99
2022-08-07T11:33:53.832Z,45.55
2022-08-07T11:36:25.455Z,45.10
2022-08-07T11:38:58.359Z,44.76
2022-08-07T11:42:00.414Z,44.64
2022-08-07T11:44:40.157Z,44.48
2022-08-07T11:47:29.713Z,44.03
2022-08-07T11:50:32.462Z,43.58
2022-08-07T11:53:21.913Z,43.59
2022-08-07T11:56:26.769Z,43.98
2022-08-07T12:00:09.974Z,43.78
2022-08-07T12:02:01.369Z,43.35
2022-08-07T12:04:37.170Z,43.49
2022-08-07T12:07:39.032Z,43.25
2022-08-07T12:10:19.561Z,43.71
2022-08-07T12:12:53.256Z,43.41
2022-08-07T12:15:45.983Z,42.83
2022-08-07T12:18:29.828Z,42.44
2022-08-07T12:20:57.834Z,42.69
2022-08-07T12:24:06.403Z,42.69
2022-08-07T12:26:23.437Z,42.16
2022-08-07T12:29:03.623Z,42.64
2022-08-07T12:32:01.755Z,42.72
2022-08-07T12:34:31.767Z,42.24
2022-08-07T12:36:59.688Z,42.16
2022-08-07T12:39:43.239Z,42.29
2022-08-07T12:42:13.504Z,42.34
2022-08-07T12:44:44.995Z,42.97
2022-08-07T12:47:27.129Z,42.23
2022-08-07T12:50:04.718Z,41.96
2022-08-07T12:52:47.807Z,41.98
2022-08-07T12:55:40.665Z,42.17
2022-08-07T12:58:12.903Z,41.86
2022-08-07T13:01:00.158Z,41.90
2022-08-07T13:03:55.059Z,41.58
2022-08-07T13:07:01.202Z,41.54
2022-08-07T13:10:37.507Z,41.33
2022-08-07T13:12:52.552Z,41.47
2022-08-07T13:15:29.334Z,41.67
2022-08-07T13:18:26.023Z,41.34
2022-08-07T13:21:12.232Z,41.63
2022-08-07T13:24:04.742Z,41.26
2022-08-07T13:26:51.189Z,41.39
2022-08-07T13:29:26.853Z,41.53
2022-08-07T13:32:23.696Z,41.42
2022-08-07T13:34:54.590Z,42.00
2022-08-07T13:37:32.103Z,42.03
2022-08-07T13:40:35.451Z,41.48
2022-08-07T13:42:54.870Z,41.47
2022-08-07T13:46:20.685Z,41.72
2022-08-07T13:48:27.565Z,41.70
2022-08-07T13:51:01.433Z,41.33
2022-08-07T13:53:36.031Z,41.17
2022-08-07T13:56:35.638Z,41.28
2022-08-07T13:59:12.088Z,41.79
2022-08-07T14:01:59.395Z,41.34
2022-08-07T14:04:35.447Z,41.73
2022-08-07T14:07:09.206Z,41.44
2022-08-07T14:10:02.332Z,42.10
2022-08-07T14:12:41.440Z,41.83
2022-08-07T14:15:16.650Z,41.69
2022-08-07T14:18:12.965Z,41.74
2022-08-07T14:22:40.945Z,41.29
2022-08-07T14:23:59.551Z,41.92
2022-08-07T14:26:29.844Z,41.31
2022-08-07T14:29:08.625Z,41.36
2022-08-07T14:31:56.110Z,41.52
2022-08-07T14:34:29.564Z,41.39
2022-08-07T14:36:59.434Z,41.13
2022-08-07T14:40:16.377Z,41.31
2022-08-07T14:42:23.251Z,40.72
2022-08-07T14:44:59.757Z,41.18
2022-08-07T14:47:31.477Z,41.15
2022-08-07T14:50:05.215Z,41.06
2022-08-07T14:52:35.983Z,41.11
2022-08-07T14:55:05.586Z,41.21
2022-08-07T14:57:58.648Z,40.72
2022-08-07T15:00:30.406Z,40.48
2022-08-07T15:02:59.279Z,40.68
2022-08-07T15:08:21.858Z,40.31
2022-08-07T15:11:04.321Z,40.03
2022-08-07T15:13:36.812Z,40.09
2022-08-07T15:18:55.889Z,40.59
2022-08-07T15:21:44.023Z,40.35
2022-08-07T15:25:15.013Z,40.52
2022-08-07T15:27:12.081Z,40.34
2022-08-07T15:30:09.145Z,40.63
2022-08-07T15:32:40.072Z,40.50
2022-08-07T15:35:19.803Z,40.97
2022-08-07T15:38:17.659Z,41.03
2022-08-07T15:41:23.094Z,40.86
2022-08-07T15:43:56.354Z,41.23
2022-08-07T15:49:16.307Z,40.64
2022-08-07T15:54:26.487Z,40.16
2022-08-07T15:56:59.026Z,40.13
2022-08-07T15:59:39.225Z,40.02
2022-08-07T16:02:15.218Z,40.78
2022-08-07T16:04:43.979Z,41.10
2022-08-07T16:08:33.332Z,41.37
2022-08-07T16:10:14.768Z,41.15
2022-08-07T16:13:17.797Z,40.49
2022-08-07T16:16:06.389Z,40.78
2022-08-07T16:18:49.836Z,40.09
2022-08-07T16:22:01.419Z,39.79
2022-08-07T16:24:52.674Z,39.20
2022-08-07T16:27:25.971Z,38.79
2022-08-07T16:30:30.240Z,38.08
2022-08-07T16:34:02.860Z,37.71
2022-08-07T16:36:01.260Z,37.19
2022-08-07T16:39:00.975Z,36.50
2022-08-07T16:41:54.061Z,36.39
2022-08-07T16:44:47.276Z,36.54
2022-08-07T16:47:16.568Z,36.39
2022-08-07T16:50:35.887Z,36.32
2022-08-07T16:54:02.606Z,36.10
2022-08-07T16:56:01.721Z,36.21
2022-08-07T16:59:10.769Z,36.55
2022-08-07T17:01:41.730Z,37.78
2022-08-07T17:04:12.463Z,39.20
2022-08-07T17:07:03.305Z,40.22
2022-08-07T17:10:05.165Z,40.65
2022-08-07T17:12:48.633Z,42.05
2022-08-07T17:15:20.576Z,41.63
2022-08-07T17:17:47.981Z,41.80
2022-08-07T17:20:20.830Z,42.01
2022-08-07T17:23:13.064Z,42.65
2022-08-07T17:25:51.896Z,42.59
2022-08-07T17:28:31.071Z,42.66
2022-08-07T17:31:18.384Z,42.91
2022-08-07T17:34:15.093Z,43.47
2022-08-07T17:36:57.448Z,43.27
2022-08-07T17:39:58.688Z,43.64
2022-08-07T17:42:36.257Z,44.21
2022-08-07T17:45:43.610Z,44.05
2022-08-07T17:48:30.671Z,44.49
2022-08-07T17:51:21.318Z,44.14
2022-08-07T17:54:00.772Z,45.07
2022-08-07T17:56:35.269Z,44.72
2022-08-07T17:59:09.057Z,44.70
2022-08-07T18:01:39.584Z,45.17
2022-08-07T18:04:16.232Z,45.27
2022-08-07T18:07:19.301Z,45.10
2022-08-07T18:10:05.133Z,45.68
2022-08-07T18:12:40.747Z,46.08
2022-08-07T18:15:37.405Z,45.84
2022-08-07T18:18:47.643Z,46.32
2022-08-07T18:21:42.211Z,46.03
2022-08-07T18:23:58.617Z,46.42
2022-08-07T18:26:42.835Z,47.11
2022-08-07T18:30:06.027Z,47.30
2022-08-07T18:32:38.166Z,46.87
2022-08-07T18:35:10.389Z,46.65
2022-08-07T18:38:55.947Z,47.32
2022-08-07T18:41:08.028Z,46.87
2022-08-07T18:43:57.387Z,47.54
2022-08-07T18:46:37.011Z,47.18
2022-08-07T18:50:06.036Z,47.71
2022-08-07T18:52:38.023Z,47.59
2022-08-07T18:55:42.319Z,47.68
2022-08-07T18:58:00.546Z,47.28
2022-08-07T19:00:59.274Z,47.80
2022-08-07T19:03:42.736Z,48.26
2022-08-07T19:06:16.844Z,48.12
2022-08-07T19:09:09.336Z,48.35
2022-08-07T19:12:05.724Z,48.43
2022-08-07T19:14:42.465Z,48.52
2022-08-07T19:17:55.725Z,48.36
2022-08-07T19:20:32.741Z,48.82
2022-08-07T19:23:57.227Z,48.55
2022-08-07T19:26:25.142Z,49.73
2022-08-07T19:31:04.230Z,49.46
2022-08-07T19:32:08.237Z,48.67
2022-08-07T19:34:38.808Z,50.04
2022-08-07T19:37:10.035Z,49.61
2022-08-07T19:39:57.963Z,50.39
2022-08-07T19:42:31.165Z,50.23
2022-08-07T19:45:08.522Z,48.79
2022-08-07T19:47:38.678Z,51.71
2022-08-07T19:50:43.923Z,50.87
2022-08-07T19:52:59.023Z,51.43
2022-08-07T19:55:57.604Z,50.80
2022-08-07T19:58:18.326Z,50.04
2022-08-07T20:00:56.608Z,51.62
2022-08-07T20:03:34.959Z,51.93
2022-08-07T20:06:05.436Z,51.93
2022-08-07T20:08:35.906Z,51.35
2022-08-07T20:11:09.767Z,52.31
2022-08-07T20:13:45.566Z,53.00
2022-08-07T20:16:26.152Z,52.55
2022-08-07T20:19:10.048Z,52.49
2022-08-07T20:21:47.765Z,52.80
2022-08-07T20:24:35.854Z,51.84
2022-08-07T20:27:11.722Z,52.56
2022-08-07T20:29:56.780Z,52.94
2022-08-07T20:32:36.211Z,52.30
2022-08-07T20:35:10.321Z,52.26
2022-08-07T20:37:55.696Z,52.62
2022-08-07T20:40:31.298Z,52.45
2022-08-07T20:43:02.319Z,52.92
2022-08-07T20:46:25.921Z,53.11
2022-08-07T20:48:29.862Z,53.00
2022-08-07T20:50:59.994Z,55.07
2022-08-07T20:54:02.992Z,52.60
2022-08-07T20:56:16.638Z,53.64
2022-08-07T20:58:53.827Z,53.46
2022-08-07T21:01:23.155Z,53.10
2022-08-07T21:04:18.589Z,54.92
2022-08-07T21:06:46.546Z,54.54
2022-08-07T21:09:24.128Z,54.15
2022-08-07T21:11:55.724Z,53.68
2022-08-07T21:14:32.121Z,54.45
2022-08-07T21:18:00.741Z,54.61
2022-08-07T21:19:50.683Z,54.56
2022-08-07T21:22:28.901Z,54.35
2022-08-07T21:25:12.507Z,54.33
2022-08-07T21:27:49.749Z,54.83
2022-08-07T21:30:24.365Z,55.12
2022-08-07T21:33:00.193Z,53.84
2022-08-07T21:36:05.087Z,56.26
2022-08-07T21:38:29.356Z,55.12
2022-08-07T21:40:56.593Z,55.82
2022-08-07T21:43:47.231Z,55.90
2022-08-07T21:46:24.662Z,54.95
2022-08-07T21:49:03.423Z,55.93
2022-08-07T21:51:51.104Z,55.24
2022-08-07T21:54:27.800Z,56.86
2022-08-07T21:57:30.897Z,56.12
2022-08-07T22:00:21.959Z,56.07
2022-08-07T22:03:06.340Z,55.96
2022-08-07T22:05:44.304Z,55.56
2022-08-07T22:08:18.827Z,55.77
2022-08-07T22:10:53.491Z,55.75
2022-08-07T22:13:24.522Z,56.83
2022-08-07T22:16:39.514Z,57.52
2022-08-07T22:19:18.130Z,56.80
2022-08-07T22:22:20.858Z,57.77
2022-08-07T22:24:54.706Z,58.87
2022-08-07T22:28:03.172Z,61.20
2022-08-07T22:30:19.257Z,62.11
2022-08-07T22:33:01.718Z,60.68
2022-08-07T22:35:39.572Z,61.66
2022-08-07T22:38:14.131Z,65.49
2022-08-07T22:40:54.846Z,61.58
2022-08-07T22:43:42.473Z,62.19
2022-08-07T22:46:47.117Z,63.46
2022-08-07T22:49:11.268Z,63.25
2022-08-07T22:52:01.597Z,63.48
2022-08-07T22:54:49.053Z,64.84
2022-08-07T22:57:37.420Z,63.05
2022-08-07T23:00:28.496Z,65.49
2022-08-07T23:03:14.919Z,65.22
2022-08-07T23:06:09.519Z,64.65
2022-08-07T23:08:45.843Z,66.10
2022-08-07T23:11:28.062Z,66.00
2022-08-07T23:14:22.816Z,67.12
2022-08-07T23:16:59.026Z,67.24
2022-08-07T23:20:04.050Z,67.70
2022-08-07T23:22:31.800Z,67.34
2022-08-07T23:24:59.228Z,66.70
2022-08-07T23:28:21.347Z,66.20
2022-08-07T23:31:05.646Z,67.49
2022-08-07T23:34:34.105Z,67.05
2022-08-07T23:36:39.164Z,66.82
2022-08-07T23:39:33.248Z,67.66
2022-08-07T23:42:08.357Z,66.22
2022-08-07T23:44:54.355Z,67.72
2022-08-07T23:47:42.229Z,68.11
2022-08-07T23:50:23.078Z,67.90
2022-08-07T23:53:08.419Z,68.08
2022-08-07T23:55:53.197Z,68.25
2022-08-07T23:58:25.584Z,70.48
